Aviation Digital Data Service (ADDS)

Output produced by METARs form (1231 UTC 25 June 2019)
found at http://www.aviationweather.gov/metar/data/
 
UATE 251200Z 20006MPS CAVOK 35/09 Q1012 R12/0///70 NOSIG RMK QFE757/1009
TAF UATE 251107Z 2512/2612 20006G12MPS 9999 SCT033CB TX34/2609Z TN25/2601Z 
     BECMG 2518/2520 26005MPS
       
UACC 251200Z 21003MPS 180V240 9999 SCT046CB BKN230 29/17 Q1013 R22/0///70 NOSIG RMK QFE728/0971
TAF UACC 251100Z 2512/2612 VRB02MPS 9999 SCT030CB BKN100 TX31/2610Z TN18/2523Z 
     BECMG 2518/2520 16006MPS 
     BECMG 2605/2607 28006MPS 
     TEMPO 2607/2612 VRB18MPS 3100 TSRA SQ BKN030CB
       
UATG 251200Z 26008MPS 9999 BKN033CB 35/12 Q1013 R32/CLRD70 NOSIG RMK QFE761/1015
TAF UATG 251103Z 2512/2612 24008G13MPS 9999 BKN030CB TX33/2610Z TN20/2601Z 
     PROB40 
     TEMPO 2512/2517 TS 
     BECMG 2517/2519 34008MPS 
     TEMPO 2520/2605 VRB03MPS
       
UAAH 251100Z 24007MPS 9999 FEW048 31/11 Q1011 NOSIG RMK QFE720/0960
TAF UAAH 251101Z 2512/2521 22005MPS 9999 SCT040 SCT100
       
UAKK 251200Z 05002MPS 010V110 CAVOK 27/13 Q1015 R05/0///70 NOSIG RMK QFE714/0952
TAF UAKK 251100Z 2512/2612 VRB02MPS 9999 BKN030 BKN100 TX31/2610Z TN12/2523Z 
     BECMG 2516/2518 14005MPS NSC 
     TEMPO 2516/2524 16005MPS SCT011 
     BECMG 2603/2605 23008MPS SCT030CB 
     TEMPO 2606/2612 24012MPS -SHRA BKN020CB
       
UAUU 251200Z 29010MPS 9999 VCTS -SHRA BKN042CB 23/16 Q1010 NOSIG RMK QFE742/0989
TAF UAUU 251100Z 2512/2521 27007MPS 9999 BKN030CB 
     TEMPO 2512/2518 VRB18MPS 1500 TSRA GR SQ SCT009 BKN020CB
       
UASS 251200Z 34004MPS 300V020 CAVOK 26/07 Q1014 R08/0///60 NOSIG RMK QFE740/0987
TAF UASS 251102Z 2512/2521 30005MPS 9999 SCT030 BKN100 
     TEMPO 2512/2518 35007MPS -TSRA BKN020CB
       
UAII 251200Z 06004MPS CAVOK 36/06 Q1009 R28/0///70 NOSIG RMK QFE720/0960
TAF UAII 251100Z 2512/2612 06003G08MPS 8000 SCT050 BKN100 TX38/2609Z TN20/2601Z 
     TEMPO 2512/2518 03006G11MPS 
     TEMPO 2518/2605 09005MPS
       
UARR 251200Z 36008MPS 9999 SCT050CB BKN130 28/09 Q1015 R04/CLRD70 NOSIG RMK QFE758/1011
TAF UARR 251102Z 2512/2521 36006MPS 9999 SCT033CB 
     PROB40 
     TEMPO 2512/2515 -TSRA
       
UASK 251200Z 36006MPS 9999 FEW040 23/10 Q1014 R30/090060 NOSIG RMK QFE735/0981
TAF UASK 251104Z 2512/2521 35007G12MPS 9999 SCT040 BKN100 
     TEMPO 2512/2518 04008G13MPS
       
UAKD 251200Z 29002MPS 220V310 9999 SCT060 37/02 Q1011 R22/0///65 NOSIG RMK QFE725/0967
TAF UAKD 251100Z 2512/2521 24005MPS 9999 SCT040 TX37/2512Z 
     TEMPO 2512/2518 VRB02MPS SCT040CB 
     TEMPO 2518/2521 VRB02MPS SCT040CB